createdAt,value
2022-11-16T00:34:36.880Z,11.00
2022-11-16T09:49:02.518Z,10.60
2022-11-16T11:21:32.070Z,11.80
2022-11-16T11:24:22.759Z,11.80
2022-11-16T11:30:30.731Z,11.60
2022-11-16T11:33:11.273Z,11.70
2022-11-16T11:35:40.601Z,11.80
2022-11-16T11:38:08.307Z,11.80
2022-11-16T11:50:55.802Z,11.80
2022-11-16T11:53:56.909Z,11.80
2022-11-16T11:56:25.563Z,11.70
2022-11-16T11:59:24.196Z,11.60
2022-11-16T12:02:21.558Z,11.60
2022-11-16T12:05:24.244Z,11.60
2022-11-16T12:08:42.158Z,11.60
2022-11-16T12:11:17.996Z,11.70
2022-11-16T12:14:23.334Z,11.70
2022-11-16T12:17:27.195Z,11.80
2022-11-16T12:20:02.895Z,11.90
2022-11-16T12:23:03.723Z,12.10
2022-11-16T12:26:07.935Z,12.20
2022-11-16T12:32:19.194Z,12.40
2022-11-16T12:35:17.578Z,12.40
2022-11-16T12:38:26.423Z,12.40
2022-11-16T12:44:42.519Z,12.40
2022-11-16T12:54:57.977Z,12.30
2022-11-16T12:57:44.129Z,12.40
2022-11-16T13:03:45.521Z,12.10
2022-11-16T13:06:20.449Z,12.20
2022-11-16T13:08:55.689Z,12.20
2022-11-16T13:11:36.957Z,12.20
2022-11-16T13:14:12.548Z,12.40
2022-11-16T13:19:43.533Z,12.20
2022-11-16T13:22:42.508Z,12.00
2022-11-16T13:25:33.863Z,12.00
2022-11-16T13:28:33.370Z,12.00
2022-11-16T13:31:30.338Z,11.90
2022-11-16T13:34:05.675Z,11.80
2022-11-16T13:40:40.111Z,11.80
2022-11-16T13:43:09.694Z,11.70
2022-11-16T13:46:03.312Z,11.70
2022-11-16T13:48:33.135Z,11.80
2022-11-16T13:51:21.746Z,11.90
2022-11-16T13:56:50.847Z,12.00
2022-11-16T13:59:29.377Z,12.10
2022-11-16T14:02:02.027Z,12.00
2022-11-16T14:04:55.689Z,12.00
2022-11-16T14:07:55.072Z,11.90
2022-11-16T14:18:06.892Z,11.60
2022-11-16T14:20:51.090Z,11.60
2022-11-16T14:23:47.691Z,11.60
2022-11-16T14:26:26.985Z,11.50
2022-11-16T14:29:20.705Z,11.50
2022-11-16T14:32:02.715Z,11.50
2022-11-16T14:34:44.310Z,11.50
2022-11-16T14:37:34.690Z,11.50
2022-11-16T14:40:17.413Z,11.50
2022-11-16T14:43:15.327Z,11.40
2022-11-16T14:46:20.746Z,11.30
2022-11-16T14:48:47.746Z,11.20
2022-11-16T14:51:52.077Z,11.20
2022-11-16T14:57:31.435Z,11.20
2022-11-16T15:00:39.487Z,11.20
2022-11-16T15:13:00.467Z,11.20
2022-11-16T15:15:30.088Z,11.20
2022-11-16T15:29:37.675Z,11.20
2022-11-16T15:32:07.009Z,11.20
2022-11-16T15:34:39.501Z,11.10
2022-11-16T17:14:03.027Z,9.90
2022-11-16T17:37:21.513Z,9.60
2022-11-16T17:43:35.801Z,9.50
2022-11-16T17:46:06.557Z,9.50
2022-11-16T17:51:13.058Z,9.50
2022-11-16T18:08:47.688Z,9.40
2022-11-16T18:11:27.245Z,9.50
2022-11-16T18:13:56.119Z,9.50
2022-11-16T18:19:16.441Z,9.40
2022-11-16T18:25:18.665Z,9.30
2022-11-16T18:28:08.422Z,9.30
2022-11-16T18:30:37.321Z,9.30
2022-11-16T18:33:10.658Z,9.30
2022-11-16T18:35:37.550Z,9.30
2022-11-16T18:38:04.425Z,9.30
2022-11-16T18:40:31.218Z,9.30
2022-11-16T18:43:02.649Z,9.30
2022-11-16T18:45:30.913Z,9.30
2022-11-16T18:47:57.673Z,9.30
2022-11-16T18:50:26.993Z,9.30
2022-11-16T18:52:54.091Z,9.30
2022-11-16T18:55:43.524Z,9.30
2022-11-16T18:59:08.036Z,9.30
2022-11-16T19:01:37.996Z,9.30
2022-11-16T19:04:12.411Z,9.40
2022-11-16T19:09:29.451Z,9.40
2022-11-16T19:12:01.376Z,9.40
2022-11-16T19:14:28.200Z,9.40
2022-11-16T19:31:36.248Z,9.50
2022-11-16T19:40:55.916Z,9.50
2022-11-16T19:43:22.640Z,9.50
2022-11-16T19:48:33.804Z,9.60
2022-11-16T19:51:11.574Z,9.60
2022-11-16T19:53:50.661Z,9.60
2022-11-16T20:09:20.650Z,9.50
2022-11-16T20:11:47.308Z,9.50
2022-11-16T20:14:14.071Z,9.50
2022-11-16T20:16:42.555Z,9.50
2022-11-16T20:24:25.761Z,9.40
2022-11-16T20:28:25.889Z,9.40
2022-11-16T20:33:26.523Z,9.40
2022-11-16T20:36:03.710Z,9.40
2022-11-16T20:38:43.756Z,9.40
2022-11-16T20:43:59.677Z,9.30
2022-11-16T20:46:51.688Z,9.30
2022-11-16T20:50:04.405Z,9.30
2022-11-16T20:52:31.208Z,9.30
2022-11-16T20:55:00.661Z,9.30
2022-11-16T20:57:28.028Z,9.30
2022-11-16T20:59:54.757Z,9.30
2022-11-16T21:02:30.052Z,9.30
2022-11-16T21:05:00.250Z,9.30
2022-11-16T21:20:42.480Z,9.40
2022-11-16T21:23:09.146Z,9.50
2022-11-16T21:25:35.808Z,9.50
2022-11-16T21:28:05.140Z,9.50
2022-11-16T21:33:36.933Z,9.60
2022-11-16T21:36:05.596Z,9.60
2022-11-16T21:38:33.267Z,9.60
2022-11-16T21:41:10.274Z,9.60
2022-11-16T21:46:53.740Z,9.60
2022-11-16T21:49:20.548Z,9.60
2022-11-16T21:54:33.127Z,9.70
2022-11-16T22:03:34.157Z,9.70
2022-11-16T22:15:36.013Z,9.80
2022-11-16T22:18:02.742Z,9.80
2022-11-16T22:25:35.237Z,9.80
2022-11-16T22:30:51.905Z,9.80
2022-11-16T22:36:12.361Z,9.70
2022-11-16T22:38:45.861Z,9.60
2022-11-16T22:41:12.882Z,9.60
2022-11-16T22:43:40.319Z,9.60
2022-11-16T22:46:15.996Z,9.60
2022-11-16T22:48:42.714Z,9.50
2022-11-16T22:51:17.655Z,9.50
2022-11-16T22:53:44.511Z,9.50
2022-11-16T22:56:18.926Z,9.50
2022-11-16T22:58:48.167Z,9.40
2022-11-16T23:01:15.123Z,9.40
2022-11-16T23:03:44.620Z,9.40
2022-11-16T23:06:14.526Z,9.40
2022-11-16T23:08:44.527Z,9.40
2022-11-16T23:11:15.000Z,9.40
2022-11-16T23:13:41.685Z,9.40
2022-11-16T23:16:08.422Z,9.30
2022-11-16T23:18:34.986Z,9.30
2022-11-16T23:21:01.608Z,9.30
2022-11-16T23:26:17.808Z,9.30
2022-11-16T23:28:44.415Z,9.30
2022-11-16T23:31:10.981Z,9.30
2022-11-16T23:33:51.585Z,9.30
2022-11-16T23:36:18.309Z,9.20
2022-11-16T23:38:50.209Z,9.30
2022-11-16T23:41:16.862Z,9.20
2022-11-16T23:43:48.800Z,9.20
2022-11-16T23:46:18.496Z,9.20
2022-11-16T23:48:50.438Z,9.20
2022-11-16T23:51:25.475Z,9.20
2022-11-16T23:53:53.443Z,9.20
2022-11-16T23:56:23.256Z,9.20
2022-11-16T23:59:05.354Z,9.20
